< < Back
Terminal Aerodrome Forecast


Current Version              Previous Versions:   1  2  3  4  5  6  7  8  9  

Terminal Aerodrome Forecast

647
FTUS42 KILM 250527
TAFILM
TAF
KILM 250527Z 2506/2606 22005KT P6SM FEW040 BKN180
     FM251000 VRB03KT P6SM BKN120
     FM251600 24010KT P6SM VCSH SCT040 BKN080
     FM252200 20009G15KT P6SM -RA VCTS SCT007 SCT020 BKN040CB
     FM260200 22010KT P6SM SCT007 OVC015=



Latest METAR

932
SAUS70 KWBC 251600 RRG
MTRILM
METAR KILM 251553Z 28009KT 10SM OVC048 16/12 A2995 RMK AO2 RAE51 SLP141
P0001 T01610122


USA.gov is the U.S. government's official web portal to all federal, state and local government web resources and services.